createdAt,value
2023-05-05T00:01:07.376Z,15.50
2023-05-05T00:03:38.597Z,15.44
2023-05-05T00:06:07.412Z,15.41
2023-05-05T00:08:35.794Z,15.36
2023-05-05T00:11:04.026Z,15.30
2023-05-05T00:13:32.338Z,15.26
2023-05-05T00:16:01.218Z,15.23
2023-05-05T00:18:30.431Z,15.21
2023-05-05T00:20:58.651Z,15.15
2023-05-05T00:23:26.904Z,15.09
2023-05-05T00:25:55.289Z,15.10
2023-05-05T00:28:23.583Z,15.04
2023-05-05T00:30:52.092Z,15.00
2023-05-05T00:33:20.452Z,15.01
2023-05-05T00:35:49.086Z,15.05
2023-05-05T00:38:17.618Z,15.07
2023-05-05T00:40:46.112Z,15.03
2023-05-05T00:43:14.937Z,14.97
2023-05-05T00:45:48.526Z,14.90
2023-05-05T00:48:18.712Z,14.88
2023-05-05T00:50:47.128Z,14.87
2023-05-05T00:53:15.459Z,14.79
2023-05-05T00:55:43.824Z,14.64
2023-05-05T00:58:14.156Z,14.55
2023-05-05T01:00:42.738Z,14.52
2023-05-05T01:03:11.307Z,14.50
2023-05-05T01:05:58.073Z,14.50
2023-05-05T01:08:29.369Z,14.50
2023-05-05T01:11:04.127Z,14.50
2023-05-05T01:13:44.231Z,14.56
2023-05-05T01:16:28.130Z,14.58
2023-05-05T01:19:16.555Z,14.59
2023-05-05T01:21:54.754Z,14.62
2023-05-05T01:24:31.427Z,14.61
2023-05-05T01:27:18.004Z,14.58
2023-05-05T01:30:07.650Z,14.57
2023-05-05T01:32:43.757Z,14.58
2023-05-05T01:35:34.172Z,14.56
2023-05-05T01:38:09.241Z,14.50
2023-05-05T01:40:45.206Z,14.44
2023-05-05T01:43:16.298Z,14.40
2023-05-05T01:45:47.140Z,14.42
2023-05-05T01:48:19.730Z,14.39
2023-05-05T01:50:49.909Z,14.37
2023-05-05T01:53:19.916Z,14.33
2023-05-05T01:55:50.569Z,14.27
2023-05-05T01:58:19.329Z,14.22
2023-05-05T02:00:48.798Z,14.21
2023-05-05T02:03:18.415Z,14.19
2023-05-05T02:05:50.360Z,14.16
2023-05-05T02:08:19.823Z,14.17
2023-05-05T02:10:50.376Z,14.18
2023-05-05T02:13:20.704Z,14.20
2023-05-05T02:15:51.826Z,14.19
2023-05-05T02:18:21.370Z,14.18
2023-05-05T02:20:49.782Z,14.16
2023-05-05T02:23:18.055Z,14.14
2023-05-05T02:25:54.340Z,14.15
2023-05-05T02:28:36.281Z,14.16
2023-05-05T02:31:08.261Z,14.17
2023-05-05T02:33:38.420Z,14.18
2023-05-05T02:36:19.391Z,14.18
2023-05-05T02:38:50.824Z,14.18
2023-05-05T02:41:22.296Z,14.17
2023-05-05T02:43:52.501Z,14.05
2023-05-05T02:46:20.734Z,13.99
2023-05-05T02:48:49.293Z,13.96
2023-05-05T02:51:17.508Z,13.96
2023-05-05T02:53:45.791Z,13.95
2023-05-05T02:56:19.748Z,13.95
2023-05-05T02:58:53.978Z,13.93
2023-05-05T03:01:40.451Z,13.93
2023-05-05T03:04:24.845Z,13.89
2023-05-05T03:06:58.537Z,13.84
2023-05-05T03:09:32.092Z,13.75
2023-05-05T03:12:10.456Z,13.66
2023-05-05T03:14:43.137Z,13.65
2023-05-05T03:17:13.714Z,13.57
2023-05-05T03:19:44.238Z,13.58
2023-05-05T03:22:12.980Z,13.61
2023-05-05T03:24:42.030Z,13.62
2023-05-05T03:27:10.264Z,13.63
2023-05-05T03:29:38.580Z,13.56
2023-05-05T03:32:07.474Z,13.55
2023-05-05T03:34:38.210Z,13.53
2023-05-05T03:37:06.449Z,13.56
2023-05-05T03:39:34.686Z,13.58
2023-05-05T03:42:02.897Z,13.60
2023-05-05T03:44:31.418Z,13.60
2023-05-05T03:46:59.607Z,13.61
2023-05-05T03:49:27.853Z,13.57
2023-05-05T03:51:56.403Z,13.54
2023-05-05T03:54:24.610Z,13.52
2023-05-05T03:56:52.786Z,13.47
2023-05-05T03:59:21.101Z,13.40
2023-05-05T04:01:50.732Z,13.36
2023-05-05T04:04:19.089Z,13.37
2023-05-05T04:06:47.439Z,13.33
2023-05-05T04:09:15.716Z,13.31
2023-05-05T04:11:43.933Z,13.28
2023-05-05T04:14:12.242Z,13.28
2023-05-05T04:16:40.602Z,13.27
2023-05-05T04:19:09.301Z,13.24
2023-05-05T04:21:37.564Z,13.19
2023-05-05T04:24:06.010Z,13.16
2023-05-05T04:26:34.295Z,13.15
2023-05-05T04:29:02.542Z,13.18
2023-05-05T04:31:31.567Z,13.23
2023-05-05T04:33:59.807Z,13.20
2023-05-05T04:36:28.298Z,13.14
2023-05-05T04:38:56.547Z,13.16
2023-05-05T04:41:24.843Z,13.16
2023-05-05T04:43:53.860Z,13.17
2023-05-05T04:46:22.746Z,13.18
2023-05-05T04:48:51.046Z,13.13
2023-05-05T04:51:19.243Z,13.10
2023-05-05T04:53:47.541Z,13.12
2023-05-05T04:56:15.888Z,13.15
2023-05-05T04:58:44.139Z,13.20
2023-05-05T05:01:12.363Z,13.22
2023-05-05T05:03:40.638Z,13.20
2023-05-05T05:06:08.890Z,13.20
2023-05-05T05:08:37.422Z,13.17
2023-05-05T05:11:05.649Z,13.13
2023-05-05T05:13:33.910Z,13.07
2023-05-05T05:16:03.155Z,13.05
2023-05-05T05:18:31.398Z,13.04
2023-05-05T05:20:59.649Z,12.99
2023-05-05T05:23:27.894Z,12.97
2023-05-05T05:25:56.716Z,12.93
2023-05-05T05:28:25.020Z,12.92
2023-05-05T05:30:53.708Z,12.92
2023-05-05T05:33:21.995Z,12.88
2023-05-05T05:35:50.210Z,12.87
2023-05-05T05:38:18.775Z,12.91
2023-05-05T05:40:47.278Z,12.92
2023-05-05T05:43:15.543Z,12.88
2023-05-05T05:45:44.024Z,12.82
2023-05-05T05:48:12.353Z,12.80
2023-05-05T05:50:40.641Z,12.78
2023-05-05T05:53:08.850Z,12.75
2023-05-05T05:55:37.079Z,12.66
2023-05-05T05:58:05.282Z,12.62
2023-05-05T06:00:33.516Z,12.57
2023-05-05T06:03:01.918Z,12.56
2023-05-05T06:05:30.296Z,12.55
2023-05-05T06:07:58.553Z,12.59
2023-05-05T06:10:28.381Z,12.58
2023-05-05T06:12:56.914Z,12.60
2023-05-05T06:15:26.421Z,12.61
2023-05-05T06:17:54.828Z,12.61
2023-05-05T06:20:23.889Z,12.61
2023-05-05T06:22:52.079Z,12.63
2023-05-05T06:25:20.271Z,12.62
2023-05-05T06:27:48.807Z,12.63
2023-05-05T06:30:17.177Z,12.64
2023-05-05T06:32:45.422Z,12.64
2023-05-05T06:35:14.129Z,12.65
2023-05-05T06:37:42.347Z,12.64
2023-05-05T06:40:11.377Z,12.64
2023-05-05T06:42:39.619Z,12.63
2023-05-05T06:45:08.415Z,12.61
2023-05-05T06:47:37.257Z,12.61
2023-05-05T06:50:06.000Z,12.58
2023-05-05T06:52:34.493Z,12.52
2023-05-05T06:55:02.845Z,12.48
2023-05-05T06:57:31.096Z,12.42
2023-05-05T06:59:59.382Z,12.38
2023-05-05T07:02:27.585Z,12.35
2023-05-05T07:04:56.280Z,12.32
2023-05-05T07:07:24.612Z,12.29
2023-05-05T07:09:53.037Z,12.26
2023-05-05T07:12:21.261Z,12.23
2023-05-05T07:14:49.776Z,12.20
2023-05-05T07:17:18.015Z,12.13
2023-05-05T07:19:46.325Z,12.04
2023-05-05T07:22:14.726Z,12.00
2023-05-05T07:24:42.970Z,11.97
2023-05-05T07:27:11.512Z,11.95
2023-05-05T07:29:39.704Z,11.92
2023-05-05T07:32:09.781Z,11.89
2023-05-05T07:34:38.876Z,11.83
2023-05-05T07:37:07.721Z,11.78
2023-05-05T07:39:35.890Z,11.74
2023-05-05T07:42:04.084Z,11.68
2023-05-05T07:44:32.589Z,11.59
2023-05-05T07:47:00.894Z,11.52
2023-05-05T07:49:29.137Z,11.50
2023-05-05T07:51:57.419Z,11.54
2023-05-05T07:54:25.612Z,11.54
2023-05-05T07:56:53.845Z,11.55
2023-05-05T07:59:22.487Z,11.56
2023-05-05T08:01:51.131Z,11.53
2023-05-05T08:04:20.318Z,11.47
2023-05-05T08:06:48.841Z,11.41
2023-05-05T08:09:17.116Z,11.31
2023-05-05T08:11:45.297Z,11.28
2023-05-05T08:14:13.532Z,11.27
2023-05-05T08:16:41.763Z,11.25
2023-05-05T08:19:14.847Z,11.22
2023-05-05T08:21:46.137Z,11.13
2023-05-05T08:24:14.624Z,11.05
2023-05-05T08:26:42.846Z,11.01
2023-05-05T08:29:11.044Z,10.98
2023-05-05T08:31:39.293Z,10.98
2023-05-05T08:34:08.085Z,10.97
2023-05-05T08:36:36.340Z,10.96
2023-05-05T08:39:04.620Z,10.95
2023-05-05T08:41:34.089Z,10.93
2023-05-05T08:44:03.017Z,10.89
2023-05-05T08:46:32.580Z,10.84
2023-05-05T08:49:02.403Z,10.79
2023-05-05T08:51:38.513Z,10.76
2023-05-05T08:54:08.066Z,10.75
2023-05-05T08:56:44.530Z,10.72
2023-05-05T08:59:14.488Z,10.71
2023-05-05T09:01:43.815Z,10.72
2023-05-05T09:04:12.407Z,10.73
2023-05-05T09:06:40.906Z,10.73
2023-05-05T09:09:10.381Z,10.73
2023-05-05T09:11:40.171Z,10.71
2023-05-05T09:14:08.394Z,10.74
2023-05-05T09:16:36.642Z,10.75
2023-05-05T09:19:07.806Z,10.78
2023-05-05T09:21:35.989Z,10.82
2023-05-05T09:24:12.450Z,10.86
2023-05-05T09:26:45.933Z,10.89
2023-05-05T09:29:21.525Z,10.96
2023-05-05T09:32:09.221Z,11.03
2023-05-05T09:34:37.553Z,11.07
2023-05-05T09:37:06.781Z,11.09
2023-05-05T09:39:35.046Z,11.14
2023-05-05T09:42:04.025Z,11.16
2023-05-05T09:44:36.805Z,11.21
2023-05-05T09:47:09.548Z,11.25
2023-05-05T09:49:43.317Z,11.27
2023-05-05T09:52:16.449Z,11.28
2023-05-05T09:54:45.571Z,11.32
2023-05-05T09:57:34.978Z,11.29
2023-05-05T10:00:05.223Z,11.29
2023-05-05T10:02:40.141Z,11.31
2023-05-05T10:05:13.606Z,11.31
2023-05-05T10:07:44.185Z,11.32
2023-05-05T10:10:14.868Z,11.33
2023-05-05T10:12:43.550Z,11.34
2023-05-05T10:15:13.177Z,11.33
2023-05-05T10:20:21.952Z,11.35
2023-05-05T10:22:57.315Z,11.37
2023-05-05T10:25:36.385Z,11.40
2023-05-05T10:28:07.987Z,11.41
2023-05-05T10:30:44.104Z,11.39
2023-05-05T10:35:58.177Z,11.40
2023-05-05T10:38:29.827Z,11.38
2023-05-05T10:41:00.386Z,11.40
2023-05-05T10:43:30.411Z,11.39
2023-05-05T10:45:59.259Z,11.38
2023-05-05T10:48:39.057Z,11.41
2023-05-05T10:51:27.435Z,11.40
2023-05-05T10:54:22.088Z,11.41
2023-05-05T10:56:51.001Z,11.40
2023-05-05T10:59:40.475Z,11.42
2023-05-05T11:02:27.586Z,11.47
2023-05-05T11:05:10.104Z,11.50
2023-05-05T11:07:39.163Z,11.46
2023-05-05T11:10:11.695Z,11.47
2023-05-05T11:13:03.278Z,11.48
2023-05-05T11:15:31.506Z,11.47
2023-05-05T11:18:07.088Z,11.46
2023-05-05T11:20:44.164Z,11.47
2023-05-05T11:23:13.461Z,11.47
2023-05-05T11:25:46.221Z,11.51
2023-05-05T11:28:15.604Z,11.53
2023-05-05T11:31:01.778Z,11.52
2023-05-05T11:33:38.512Z,11.56
2023-05-05T11:36:08.685Z,11.57
2023-05-05T11:38:54.474Z,11.60
2023-05-05T11:41:36.905Z,11.61
2023-05-05T11:44:13.275Z,11.62
2023-05-05T11:46:54.305Z,11.64
2023-05-05T11:49:28.681Z,11.64
2023-05-05T11:52:20.583Z,11.64
2023-05-05T11:54:49.932Z,11.64
2023-05-05T11:57:21.932Z,11.64
2023-05-05T12:00:06.564Z,11.65
2023-05-05T12:02:35.964Z,11.66
2023-05-05T12:05:04.952Z,11.68
2023-05-05T12:07:34.624Z,11.68
2023-05-05T12:10:02.935Z,11.69
2023-05-05T12:12:40.724Z,11.67
2023-05-05T12:15:10.696Z,11.69
2023-05-05T12:17:45.656Z,11.70
2023-05-05T12:20:14.374Z,11.71
2023-05-05T12:22:43.116Z,11.72
2023-05-05T12:25:11.768Z,11.73
2023-05-05T12:27:40.178Z,11.76
2023-05-05T12:30:14.614Z,11.77
2023-05-05T12:32:43.330Z,11.78
2023-05-05T12:35:12.670Z,11.78
2023-05-05T12:37:41.530Z,11.76
2023-05-05T12:40:45.296Z,11.73
2023-05-05T12:43:34.192Z,11.72
2023-05-05T12:46:11.436Z,11.72
2023-05-05T12:48:42.346Z,11.70
2023-05-05T12:51:26.448Z,11.68
2023-05-05T12:54:06.029Z,11.67
2023-05-05T12:56:38.751Z,11.66
2023-05-05T12:59:08.902Z,11.67
2023-05-05T13:01:38.715Z,11.65
2023-05-05T13:04:14.061Z,11.65
2023-05-05T13:06:44.865Z,11.64
2023-05-05T13:09:37.166Z,11.66
2023-05-05T13:12:05.887Z,11.67
2023-05-05T13:14:34.453Z,11.69
2023-05-05T13:17:02.789Z,11.72
2023-05-05T13:19:31.740Z,11.75
2023-05-05T13:22:00.305Z,11.75
2023-05-05T13:24:38.141Z,11.75
2023-05-05T13:27:15.354Z,11.75
2023-05-05T13:29:44.650Z,11.75
2023-05-05T13:32:13.027Z,11.76
2023-05-05T13:34:41.322Z,11.78
2023-05-05T13:37:09.610Z,11.79
2023-05-05T13:39:37.839Z,11.80
2023-05-05T13:42:06.178Z,11.84
2023-05-05T13:44:34.429Z,11.87
2023-05-05T13:47:02.747Z,11.91
2023-05-05T13:49:30.967Z,11.95
2023-05-05T13:51:59.413Z,11.97
2023-05-05T13:54:27.606Z,11.99
2023-05-05T13:56:55.800Z,12.00
2023-05-05T13:59:24.144Z,12.03
2023-05-05T14:01:52.383Z,12.05
2023-05-05T14:04:20.687Z,12.08
2023-05-05T14:06:49.167Z,12.11
2023-05-05T14:09:17.475Z,12.15
2023-05-05T14:11:45.774Z,12.17
2023-05-05T14:14:14.080Z,12.20
2023-05-05T14:16:42.301Z,12.21
2023-05-05T14:19:10.548Z,12.20
2023-05-05T14:21:39.077Z,12.23
2023-05-05T14:24:07.598Z,12.25
2023-05-05T14:26:35.801Z,12.27
2023-05-05T14:29:04.116Z,12.29
2023-05-05T14:31:32.607Z,12.33
2023-05-05T14:34:00.788Z,12.37
2023-05-05T14:36:29.083Z,12.39
2023-05-05T14:38:57.342Z,12.41
2023-05-05T14:41:25.820Z,12.43
2023-05-05T14:43:54.099Z,12.47
2023-05-05T14:46:22.631Z,12.48
2023-05-05T14:48:50.882Z,12.55
2023-05-05T14:51:19.203Z,12.61
2023-05-05T14:53:47.963Z,12.66
2023-05-05T14:56:16.441Z,12.73
2023-05-05T14:58:44.948Z,12.76
2023-05-05T15:01:13.184Z,12.79
2023-05-05T15:03:41.680Z,12.82
2023-05-05T15:06:10.232Z,12.85
2023-05-05T15:08:39.820Z,12.85
2023-05-05T15:11:08.129Z,12.89
2023-05-05T15:13:36.452Z,12.92
2023-05-05T15:16:04.828Z,12.98
2023-05-05T15:18:33.127Z,13.05
2023-05-05T15:21:01.382Z,13.11
2023-05-05T15:23:29.710Z,13.17
2023-05-05T15:25:58.229Z,13.22
2023-05-05T15:28:26.569Z,13.28
2023-05-05T15:30:54.972Z,13.37
2023-05-05T15:33:23.299Z,13.43
2023-05-05T15:35:51.530Z,13.52
2023-05-05T15:38:19.750Z,13.56
2023-05-05T15:40:50.178Z,13.58
2023-05-05T15:43:18.716Z,13.61
2023-05-05T15:45:47.332Z,13.65
2023-05-05T15:48:15.571Z,13.70
2023-05-05T15:50:43.864Z,13.74
2023-05-05T15:53:12.278Z,13.74
2023-05-05T15:55:41.544Z,13.81
2023-05-05T15:58:09.839Z,13.95
2023-05-05T16:00:38.065Z,14.02
2023-05-05T16:03:06.624Z,14.09
2023-05-05T16:05:34.892Z,14.21
2023-05-05T16:08:05.610Z,14.40
2023-05-05T16:10:33.820Z,14.63
2023-05-05T16:13:02.018Z,14.77
2023-05-05T16:15:30.295Z,14.83
2023-05-05T16:17:58.533Z,14.89
2023-05-05T16:20:26.786Z,14.92
2023-05-05T16:22:54.981Z,14.92
2023-05-05T16:25:24.313Z,14.92
2023-05-05T16:27:54.035Z,14.97
2023-05-05T16:30:22.354Z,14.95
2023-05-05T16:32:52.541Z,14.95
2023-05-05T16:35:20.971Z,14.93
2023-05-05T16:37:49.764Z,14.90
2023-05-05T16:40:17.939Z,14.84
2023-05-05T16:42:46.291Z,14.86
2023-05-05T16:45:14.716Z,14.87
2023-05-05T16:47:42.965Z,14.90
2023-05-05T16:50:11.622Z,14.80
2023-05-05T16:52:39.901Z,14.81
2023-05-05T16:55:08.516Z,15.03
2023-05-05T16:57:36.879Z,15.33
2023-05-05T17:00:10.123Z,15.50
2023-05-05T17:02:38.376Z,15.69
2023-05-05T17:05:07.268Z,15.85
2023-05-05T17:07:35.670Z,15.92
2023-05-05T17:10:03.996Z,16.08
2023-05-05T17:12:32.294Z,16.25
2023-05-05T17:15:00.729Z,16.36
2023-05-05T17:17:29.181Z,16.46
2023-05-05T17:19:57.478Z,16.45
2023-05-05T17:22:25.684Z,16.51
2023-05-05T17:24:53.904Z,16.59
2023-05-05T17:27:22.272Z,16.69
2023-05-05T17:29:50.511Z,16.82
2023-05-05T17:32:18.739Z,16.88
2023-05-05T17:34:47.306Z,16.88
2023-05-05T17:37:15.535Z,17.00
2023-05-05T17:39:43.715Z,17.04
2023-05-05T17:42:12.023Z,17.01
2023-05-05T17:44:40.286Z,17.25
2023-05-05T17:47:09.333Z,17.24
2023-05-05T17:49:37.584Z,17.15
2023-05-05T17:52:06.028Z,17.32
2023-05-05T17:54:34.281Z,17.56
2023-05-05T17:57:03.227Z,17.78
2023-05-05T17:59:32.964Z,17.96
2023-05-05T18:02:01.246Z,18.02
2023-05-05T18:04:29.446Z,17.98
2023-05-05T18:06:58.415Z,17.74
2023-05-05T18:09:27.528Z,17.65
2023-05-05T18:11:56.390Z,17.53
2023-05-05T18:14:25.506Z,17.51
2023-05-05T18:16:54.132Z,17.51
2023-05-05T18:19:24.410Z,17.53
2023-05-05T18:21:55.280Z,17.52
2023-05-05T18:24:23.545Z,17.44
2023-05-05T18:26:53.243Z,17.30
2023-05-05T18:29:22.690Z,17.29
2023-05-05T18:31:53.751Z,17.45
2023-05-05T18:34:22.374Z,17.51
2023-05-05T18:36:54.956Z,17.47
2023-05-05T18:39:23.224Z,17.44
2023-05-05T18:41:51.693Z,17.51
2023-05-05T18:44:20.982Z,17.74
2023-05-05T18:46:49.749Z,17.92
2023-05-05T18:49:18.141Z,18.29
2023-05-05T18:51:46.561Z,18.50
2023-05-05T18:54:14.786Z,18.59
2023-05-05T18:56:43.435Z,18.87
2023-05-05T18:59:11.665Z,19.19
2023-05-05T19:01:39.976Z,19.58
2023-05-05T19:04:18.822Z,19.78
2023-05-05T19:06:55.300Z,19.98
2023-05-05T19:09:23.494Z,20.00
2023-05-05T19:11:51.824Z,19.80
2023-05-05T19:14:20.043Z,19.59
2023-05-05T19:16:48.836Z,19.56
2023-05-05T19:19:17.074Z,19.49
2023-05-05T19:21:45.377Z,19.34
2023-05-05T19:24:13.666Z,19.18
2023-05-05T19:26:41.921Z,19.10
2023-05-05T19:29:10.140Z,19.04
2023-05-05T19:31:38.387Z,18.96
2023-05-05T19:34:07.076Z,18.87
2023-05-05T19:36:35.693Z,18.68
2023-05-05T19:39:05.652Z,18.52
2023-05-05T19:41:35.981Z,18.39
2023-05-05T19:44:04.220Z,18.30
2023-05-05T19:46:32.603Z,18.26
2023-05-05T19:49:00.858Z,18.25
2023-05-05T19:51:29.242Z,18.19
2023-05-05T19:53:57.509Z,18.20
2023-05-05T19:56:25.839Z,18.22
2023-05-05T19:58:59.675Z,18.19
2023-05-05T20:01:29.188Z,18.23
2023-05-05T20:03:58.126Z,18.24
2023-05-05T20:06:26.505Z,18.30
2023-05-05T20:08:56.003Z,18.45
2023-05-05T20:11:24.497Z,18.62
2023-05-05T20:13:53.825Z,18.73
2023-05-05T20:16:22.725Z,18.88
2023-05-05T20:18:51.847Z,19.00
2023-05-05T20:21:20.617Z,19.10
2023-05-05T20:23:49.430Z,19.18
2023-05-05T20:26:17.941Z,19.23
2023-05-05T20:28:46.686Z,19.22
2023-05-05T20:31:15.955Z,19.24
2023-05-05T20:33:44.282Z,19.22
2023-05-05T20:36:12.726Z,19.15
2023-05-05T20:38:41.078Z,19.01
2023-05-05T20:41:09.286Z,18.89
2023-05-05T20:43:37.986Z,18.83
2023-05-05T20:46:06.239Z,18.80
2023-05-05T20:48:34.421Z,18.74
2023-05-05T20:51:05.809Z,18.70
2023-05-05T20:53:34.303Z,18.66
2023-05-05T20:56:02.745Z,18.58
2023-05-05T20:58:31.423Z,18.52
2023-05-05T21:00:59.654Z,18.45
2023-05-05T21:03:27.942Z,18.40
2023-05-05T21:05:56.457Z,18.46
2023-05-05T21:08:24.687Z,18.53
2023-05-05T21:10:52.876Z,18.56
2023-05-05T21:13:21.194Z,18.60
2023-05-05T21:15:51.275Z,18.70
2023-05-05T21:18:19.521Z,18.82
2023-05-05T21:20:48.105Z,19.02
2023-05-05T21:23:16.300Z,19.11
2023-05-05T21:25:44.529Z,19.17
2023-05-05T21:28:12.770Z,19.19
2023-05-05T21:30:41.067Z,19.21
2023-05-05T21:33:09.616Z,19.26
2023-05-05T21:35:37.942Z,19.27
2023-05-05T21:38:06.373Z,19.22
2023-05-05T21:40:34.629Z,19.19
2023-05-05T21:43:02.834Z,19.21
2023-05-05T21:45:31.152Z,19.21
2023-05-05T21:47:59.484Z,19.17
2023-05-05T21:50:28.912Z,19.08
2023-05-05T21:52:57.805Z,18.99
2023-05-05T21:55:26.241Z,18.88
2023-05-05T21:57:54.465Z,18.80
2023-05-05T22:00:22.784Z,18.73
2023-05-05T22:02:51.145Z,18.57
2023-05-05T22:05:19.420Z,18.56
2023-05-05T22:07:47.830Z,18.56
2023-05-05T22:10:16.188Z,18.59
2023-05-05T22:12:44.502Z,18.91
2023-05-05T22:15:12.863Z,19.19
2023-05-05T22:17:41.806Z,19.26
2023-05-05T22:20:10.634Z,19.03
2023-05-05T22:22:39.021Z,18.87
2023-05-05T22:25:08.156Z,18.79
2023-05-05T22:27:36.640Z,18.61
2023-05-05T22:30:05.299Z,18.50
2023-05-05T22:32:33.852Z,18.89
2023-05-05T22:35:02.267Z,18.81
2023-05-05T22:37:30.584Z,18.67
2023-05-05T22:39:58.890Z,18.50
2023-05-05T22:42:27.653Z,18.41
2023-05-05T22:44:55.835Z,18.22
2023-05-05T22:47:24.149Z,17.97
2023-05-05T22:49:52.488Z,17.93
2023-05-05T22:52:20.819Z,17.94
2023-05-05T22:54:49.419Z,17.87
2023-05-05T22:57:17.686Z,17.80
2023-05-05T22:59:45.897Z,17.76
2023-05-05T23:02:14.444Z,17.64
2023-05-05T23:04:43.764Z,17.56
2023-05-05T23:07:15.093Z,17.59
2023-05-05T23:09:43.313Z,17.66
2023-05-05T23:12:11.651Z,17.65
2023-05-05T23:14:40.190Z,17.67
2023-05-05T23:17:08.501Z,17.73
2023-05-05T23:19:37.412Z,17.84
2023-05-05T23:22:05.946Z,17.95
2023-05-05T23:24:34.253Z,18.06
2023-05-05T23:27:03.101Z,18.11
2023-05-05T23:29:31.736Z,18.13
2023-05-05T23:32:00.168Z,18.18
2023-05-05T23:34:28.504Z,18.30
2023-05-05T23:36:56.926Z,18.40
2023-05-05T23:39:25.221Z,18.48
2023-05-05T23:41:53.588Z,18.56
2023-05-05T23:44:21.945Z,18.56
2023-05-05T23:46:50.180Z,18.55
2023-05-05T23:49:18.482Z,18.52
2023-05-05T23:51:47.552Z,18.41
2023-05-05T23:54:16.254Z,18.26
2023-05-05T23:56:44.589Z,18.14
2023-05-05T23:59:12.823Z,18.02
